Terminal Aerodrome Forecast
Issued by NWS Binghamton, NY

Home | Current Version | Previous Version | Text Only | Print | Product List | Glossary On
Versions: 1 2 3 4 5 6 7 8 9 10 11 12 13 14 15 16 17 18
000
FTUS41 KBGM 080244 AAA
TAFAVP
TAF AMD
KAVP 080244Z 0803/0824 21005KT P6SM SCT060
     FM080600 25004KT P6SM BKN060 OVC100
      TEMPO 0807/0811 -SHRA OVC035
     FM081100 28005KT 5SM -SHRA BR BKN020 OVC040
     FM081400 33006KT P6SM SCT030 BKN045=

USA.gov is the U.S. government's official web portal to all federal, state and local government web resources and services.